Strait Of Dover, United Kingdom
Current Conditions -  °F | °C
As of 11:20 AM on Friday 28 Nov 2014 (Local Time) from EGMD Reporting Station
Few Clouds Few Clouds  
Wind Chill: 12°   Ceiling: Unl
Heat Index: 12°   Visibility: 6mi
Dew Point: 11°   Wind: 16mph
Humidity: 94%   Direction: 70°ENE
Pressure: 29.59"   Gusts: NA
Location:  51°N, 1.42°E
Report Text: EGMD 281120Z 07014KT 9000 FEW010 12/11 Q1002
Loading
Personal Weather Stations






























Interactive Weather Map New forecast layout! Learn more

10-Day Weather Forecast

Advertisements
Track Severe Weather on mobile